createdAt,value
2022-12-27T00:00:40.020Z,23.20
2022-12-27T00:04:02.822Z,26.60
2022-12-27T00:07:06.726Z,24.30
2022-12-27T00:10:12.584Z,26.70
2022-12-27T00:13:15.760Z,26.70
2022-12-27T00:16:21.104Z,25.80
2022-12-27T00:19:24.394Z,24.50
2022-12-27T00:22:27.566Z,24.40
2022-12-27T00:25:30.760Z,23.90
2022-12-27T00:28:35.201Z,23.20
2022-12-27T00:31:40.263Z,22.10
2022-12-27T00:34:43.555Z,21.10
2022-12-27T00:37:46.750Z,22.50
2022-12-27T00:40:50.008Z,19.50
2022-12-27T00:43:53.584Z,18.20
2022-12-27T00:46:56.869Z,18.80
2022-12-27T00:50:00.146Z,19.30
2022-12-27T00:53:03.705Z,18.60
2022-12-27T00:56:18.257Z,16.20
2022-12-27T00:59:21.588Z,18.20
2022-12-27T01:02:26.127Z,16.90
2022-12-27T01:05:29.454Z,16.60
2022-12-27T01:08:32.748Z,14.40
2022-12-27T01:11:36.009Z,14.90
2022-12-27T01:14:39.191Z,12.30
2022-12-27T01:17:42.718Z,12.00
2022-12-27T01:20:45.934Z,9.90
2022-12-27T01:23:50.164Z,10.10
2022-12-27T01:26:53.400Z,9.10
2022-12-27T01:29:56.636Z,6.70
2022-12-27T01:32:59.828Z,7.50
2022-12-27T01:36:10.035Z,7.10
2022-12-27T01:39:13.960Z,7.60
2022-12-27T01:42:37.185Z,5.90
2022-12-27T01:45:40.599Z,6.90
2022-12-27T01:48:45.100Z,6.10
2022-12-27T01:51:48.299Z,9.80
2022-12-27T01:54:53.332Z,6.10
2022-12-27T01:58:03.219Z,6.90
2022-12-27T02:01:12.411Z,8.60
2022-12-27T02:04:19.270Z,8.20
2022-12-27T02:07:30.125Z,7.80
2022-12-27T02:10:34.742Z,5.80
2022-12-27T02:13:42.429Z,7.30
2022-12-27T02:16:47.030Z,7.50
2022-12-27T02:20:10.947Z,7.00
2022-12-27T02:23:51.634Z,6.30
2022-12-27T02:27:07.925Z,6.20
2022-12-27T02:30:13.459Z,6.90
2022-12-27T02:33:22.433Z,5.40
2022-12-27T02:36:30.356Z,5.50
2022-12-27T02:39:37.839Z,6.90
2022-12-27T02:42:59.388Z,6.30
2022-12-27T02:46:41.234Z,4.20
2022-12-27T02:50:02.806Z,3.80
2022-12-27T02:53:47.298Z,4.20
2022-12-27T02:57:13.912Z,4.60
2022-12-27T03:00:42.334Z,4.10
2022-12-27T03:03:51.143Z,2.90
2022-12-27T03:07:12.439Z,4.00
2022-12-27T03:10:43.443Z,2.30
2022-12-27T03:14:42.065Z,3.60
2022-12-27T03:17:53.355Z,3.00
2022-12-27T03:21:18.353Z,2.70
2022-12-27T03:24:45.277Z,2.30
2022-12-27T03:28:09.467Z,1.80
2022-12-27T03:31:36.983Z,5.60
2022-12-27T03:34:45.812Z,3.80
2022-12-27T03:38:04.007Z,2.70
2022-12-27T03:41:27.930Z,2.70
2022-12-27T03:44:31.274Z,3.00
2022-12-27T03:47:43.013Z,2.30
2022-12-27T03:50:57.184Z,2.30
2022-12-27T03:54:07.330Z,2.80
2022-12-27T03:57:19.774Z,3.10
2022-12-27T04:03:26.393Z,3.00
2022-12-27T04:06:29.753Z,3.10
2022-12-27T04:09:51.614Z,3.30
2022-12-27T04:13:13.376Z,2.70
2022-12-27T04:16:35.129Z,3.70
2022-12-27T04:19:56.852Z,5.40
2022-12-27T04:23:18.592Z,6.20
2022-12-27T04:26:40.295Z,6.50
2022-12-27T04:30:02.151Z,4.00
2022-12-27T04:33:24.072Z,2.70
2022-12-27T04:36:27.310Z,3.70
2022-12-27T04:39:30.563Z,3.10
2022-12-27T04:42:52.651Z,2.70
2022-12-27T04:46:14.449Z,3.30
2022-12-27T04:49:45.442Z,2.90
2022-12-27T04:53:07.299Z,2.70
2022-12-27T04:56:10.500Z,3.50
2022-12-27T04:59:32.535Z,2.80
2022-12-27T05:02:36.411Z,2.80
2022-12-27T05:05:42.054Z,2.60
2022-12-27T05:09:03.767Z,1.60
2022-12-27T05:12:28.156Z,1.70
2022-12-27T05:15:31.372Z,1.90
2022-12-27T05:18:34.542Z,2.40
2022-12-27T05:21:38.767Z,4.70
2022-12-27T05:25:00.433Z,4.60
2022-12-27T05:28:06.318Z,4.10
2022-12-27T05:31:10.085Z,3.90
2022-12-27T05:34:13.366Z,4.30
2022-12-27T05:37:16.535Z,8.00
2022-12-27T05:40:19.763Z,6.00
2022-12-27T05:43:22.928Z,6.90
2022-12-27T05:46:26.117Z,4.70
2022-12-27T05:49:29.476Z,7.20
2022-12-27T05:52:37.571Z,8.40
2022-12-27T05:55:43.979Z,7.50
2022-12-27T05:58:47.820Z,6.20
2022-12-27T06:01:51.907Z,12.20
2022-12-27T06:04:55.243Z,6.30
2022-12-27T06:07:58.748Z,9.90
2022-12-27T06:11:13.905Z,6.00
2022-12-27T06:14:17.144Z,9.30
2022-12-27T06:17:20.355Z,10.60
2022-12-27T06:20:23.593Z,8.90
2022-12-27T06:23:26.778Z,10.20
2022-12-27T06:26:30.497Z,9.70
2022-12-27T06:29:34.385Z,6.40
2022-12-27T06:32:37.662Z,8.10
2022-12-27T06:35:40.857Z,9.70
2022-12-27T06:38:44.270Z,13.80
2022-12-27T06:41:47.511Z,10.10
2022-12-27T06:44:50.698Z,13.60
2022-12-27T06:47:53.923Z,9.50
2022-12-27T06:50:57.371Z,10.70
2022-12-27T06:54:00.618Z,8.70
2022-12-27T06:57:03.847Z,6.40
2022-12-27T07:00:08.078Z,6.90
2022-12-27T07:03:11.421Z,6.90
2022-12-27T07:06:14.723Z,6.10
2022-12-27T07:09:18.169Z,8.20
2022-12-27T07:12:23.025Z,5.80
2022-12-27T07:15:26.254Z,4.20
2022-12-27T07:18:32.996Z,9.00
2022-12-27T07:21:37.260Z,10.60
2022-12-27T07:24:40.509Z,4.90
2022-12-27T07:27:43.751Z,6.80
2022-12-27T07:30:46.956Z,7.20
2022-12-27T07:33:50.726Z,9.50
2022-12-27T07:36:53.955Z,8.20
2022-12-27T07:39:57.162Z,7.50
2022-12-27T07:43:00.465Z,8.50
2022-12-27T07:46:25.561Z,7.10
2022-12-27T07:49:28.864Z,8.30
2022-12-27T07:52:33.644Z,6.60
2022-12-27T07:55:36.917Z,8.10
2022-12-27T07:58:42.878Z,6.70
2022-12-27T08:02:04.770Z,9.30
2022-12-27T08:05:08.884Z,12.90
2022-12-27T08:08:16.001Z,5.00
2022-12-27T08:11:20.431Z,7.20
2022-12-27T08:14:23.755Z,9.60
2022-12-27T08:17:28.027Z,7.60
2022-12-27T08:20:31.599Z,12.90
2022-12-27T08:23:34.835Z,9.90
2022-12-27T08:26:38.129Z,7.50
2022-12-27T08:29:41.396Z,8.30
2022-12-27T08:32:44.620Z,10.10
2022-12-27T08:35:53.137Z,7.90
2022-12-27T08:38:56.653Z,8.60
2022-12-27T08:41:59.931Z,8.10
2022-12-27T08:45:03.604Z,7.80
2022-12-27T08:48:07.716Z,9.00
2022-12-27T08:51:13.860Z,8.70
2022-12-27T08:54:19.674Z,8.00
2022-12-27T08:57:22.977Z,7.80
2022-12-27T09:00:27.492Z,10.10
2022-12-27T09:03:31.418Z,12.50
2022-12-27T09:06:34.727Z,10.80
2022-12-27T09:09:38.127Z,7.00
2022-12-27T09:12:41.680Z,10.50
2022-12-27T09:15:45.222Z,7.40
2022-12-27T09:18:53.882Z,9.40
2022-12-27T09:21:57.140Z,6.60
2022-12-27T09:25:00.409Z,9.20
2022-12-27T09:28:04.045Z,11.00
2022-12-27T09:31:09.730Z,6.80
2022-12-27T09:34:13.155Z,8.20
2022-12-27T09:37:17.891Z,7.00
2022-12-27T09:40:21.509Z,6.80
2022-12-27T09:43:54.138Z,8.30
2022-12-27T09:47:27.132Z,7.50
2022-12-27T09:50:54.955Z,7.80
2022-12-27T09:54:37.422Z,7.70
2022-12-27T09:57:43.077Z,5.80
2022-12-27T10:00:46.720Z,8.70
2022-12-27T10:03:56.564Z,4.50
2022-12-27T10:07:25.747Z,6.80
2022-12-27T10:10:50.469Z,6.80
2022-12-27T10:14:01.591Z,7.70
2022-12-27T10:18:10.403Z,6.40
2022-12-27T10:21:27.659Z,8.10
2022-12-27T10:24:47.824Z,8.80
2022-12-27T10:27:58.645Z,8.30
2022-12-27T10:31:04.018Z,7.90
2022-12-27T10:34:15.162Z,5.40
2022-12-27T10:37:21.502Z,6.00
2022-12-27T10:40:35.762Z,6.80
2022-12-27T10:43:42.475Z,4.60
2022-12-27T10:46:52.190Z,9.10
2022-12-27T10:50:11.704Z,3.70
2022-12-27T10:53:41.232Z,8.50
2022-12-27T10:56:45.045Z,10.50
2022-12-27T11:00:14.428Z,6.60
2022-12-27T11:03:19.277Z,5.30
2022-12-27T11:06:26.242Z,5.30
2022-12-27T11:09:37.424Z,26.00
2022-12-27T11:12:55.981Z,9.20
2022-12-27T11:15:59.440Z,9.70
2022-12-27T11:19:04.353Z,4.20
2022-12-27T11:22:09.475Z,5.30
2022-12-27T11:25:14.993Z,6.50
2022-12-27T11:28:55.801Z,6.40
2022-12-27T11:32:08.116Z,4.00
2022-12-27T11:35:22.204Z,10.90
2022-12-27T11:38:29.462Z,5.50
2022-12-27T11:41:52.238Z,6.50
2022-12-27T11:48:28.735Z,4.40
2022-12-27T11:51:40.211Z,8.70
2022-12-27T11:55:21.599Z,5.20
2022-12-27T11:58:24.909Z,7.40
2022-12-27T12:01:57.018Z,4.40
2022-12-27T12:05:15.606Z,6.60
2022-12-27T12:09:23.988Z,4.90
2022-12-27T12:13:06.180Z,8.10
2022-12-27T12:16:18.225Z,8.70
2022-12-27T12:19:21.606Z,7.60
2022-12-27T12:36:26.437Z,7.60
2022-12-27T12:43:12.436Z,5.30
2022-12-27T12:46:24.660Z,6.30
2022-12-27T12:50:06.565Z,6.60
2022-12-27T12:53:29.433Z,8.20
2022-12-27T12:56:32.999Z,7.00
2022-12-27T12:59:45.071Z,9.10
2022-12-27T13:03:22.407Z,8.40
2022-12-27T13:06:28.329Z,9.40
2022-12-27T13:10:07.043Z,6.50
2022-12-27T13:13:26.589Z,6.70
2022-12-27T13:17:13.839Z,9.20
2022-12-27T13:20:48.780Z,7.60
2022-12-27T13:24:02.103Z,6.40
2022-12-27T13:27:11.453Z,7.70
2022-12-27T13:30:24.433Z,5.90
2022-12-27T13:34:08.467Z,7.60
2022-12-27T13:37:24.376Z,6.60
2022-12-27T13:40:59.716Z,5.90
2022-12-27T13:44:46.518Z,6.90
2022-12-27T13:48:23.845Z,9.70
2022-12-27T13:59:49.870Z,8.80
2022-12-27T14:03:03.704Z,7.30
2022-12-27T14:06:55.946Z,7.70
2022-12-27T14:11:31.966Z,7.00
2022-12-27T14:15:43.713Z,7.10
2022-12-27T14:19:21.967Z,8.30
2022-12-27T14:22:56.611Z,9.30
2022-12-27T14:27:17.265Z,11.30
2022-12-27T14:30:32.802Z,9.30
2022-12-27T14:34:37.404Z,6.50
2022-12-27T14:38:14.298Z,7.10
2022-12-27T14:41:20.333Z,12.00
2022-12-27T14:44:59.921Z,7.40
2022-12-27T14:48:34.858Z,7.50
2022-12-27T14:52:42.666Z,9.60
2022-12-27T14:56:07.502Z,7.90
2022-12-27T14:59:13.405Z,8.00
2022-12-27T15:02:45.436Z,9.50
2022-12-27T15:05:55.574Z,8.20
2022-12-27T15:09:32.195Z,8.60
2022-12-27T15:13:00.531Z,7.40
2022-12-27T15:16:16.011Z,8.50
2022-12-27T15:19:49.601Z,9.30
2022-12-27T15:23:05.092Z,8.50
2022-12-27T15:26:17.949Z,10.10
2022-12-27T15:29:53.455Z,8.10
2022-12-27T15:33:02.482Z,10.10
2022-12-27T15:36:21.098Z,13.20
2022-12-27T15:39:33.374Z,16.40
2022-12-27T15:42:54.178Z,15.50
2022-12-27T15:46:00.304Z,14.20
2022-12-27T15:49:15.350Z,12.90
2022-12-27T15:52:36.657Z,11.50
2022-12-27T15:56:27.116Z,12.20
2022-12-27T15:59:36.776Z,15.80
2022-12-27T16:02:49.529Z,13.40
2022-12-27T16:05:54.221Z,12.60
2022-12-27T16:09:22.106Z,11.50
2022-12-27T16:12:39.812Z,12.00
2022-12-27T16:15:50.065Z,11.80
2022-12-27T16:28:32.543Z,9.10
2022-12-27T16:35:32.940Z,9.70
2022-12-27T16:39:10.236Z,11.40
2022-12-27T16:42:27.011Z,10.70
2022-12-27T16:45:39.334Z,10.80
2022-12-27T16:49:08.595Z,10.70
2022-12-27T16:57:26.939Z,10.20
2022-12-27T17:05:15.351Z,12.80
2022-12-27T17:08:31.131Z,13.80
2022-12-27T17:12:11.282Z,13.00
2022-12-27T17:15:24.824Z,11.90
2022-12-27T17:23:44.672Z,11.30
2022-12-27T17:42:40.941Z,15.70
2022-12-27T17:45:54.912Z,16.20
2022-12-27T17:48:58.906Z,15.00
2022-12-27T17:52:21.237Z,15.40
2022-12-27T17:55:53.725Z,14.20
2022-12-27T17:59:09.271Z,15.00
2022-12-27T18:02:12.609Z,15.10
2022-12-27T18:05:22.040Z,13.70
2022-12-27T18:08:36.168Z,13.90
2022-12-27T18:11:41.802Z,12.00
2022-12-27T18:14:51.643Z,11.30
2022-12-27T18:18:05.955Z,15.40
2022-12-27T18:21:22.964Z,16.90
2022-12-27T18:24:30.112Z,15.10
2022-12-27T18:27:33.316Z,14.50
2022-12-27T18:30:42.708Z,13.90
2022-12-27T18:34:07.721Z,14.30
2022-12-27T18:37:19.343Z,15.90
2022-12-27T18:40:25.915Z,12.60
2022-12-27T18:43:29.722Z,12.80
2022-12-27T18:46:37.260Z,14.60
2022-12-27T18:49:40.644Z,13.00
2022-12-27T18:52:49.620Z,13.90
2022-12-27T18:59:17.881Z,17.40
2022-12-27T19:02:37.196Z,17.40
2022-12-27T19:05:40.708Z,18.90
2022-12-27T19:08:53.162Z,15.80
2022-12-27T19:15:04.341Z,12.00
2022-12-27T19:18:31.125Z,13.70
2022-12-27T19:21:37.591Z,13.90
2022-12-27T19:24:40.869Z,14.50
2022-12-27T19:28:01.090Z,17.80
2022-12-27T19:31:21.766Z,16.90
2022-12-27T19:34:29.067Z,14.40
2022-12-27T19:37:33.737Z,13.90
2022-12-27T19:40:37.016Z,13.40
2022-12-27T19:43:45.848Z,14.20
2022-12-27T19:46:49.221Z,14.20
2022-12-27T19:49:53.202Z,15.40
2022-12-27T19:52:57.174Z,15.80
2022-12-27T19:56:02.017Z,15.60
2022-12-27T19:59:05.215Z,14.50
2022-12-27T20:02:09.096Z,17.90
2022-12-27T20:05:12.917Z,17.00
2022-12-27T20:08:33.728Z,14.20
2022-12-27T20:11:37.425Z,14.10
2022-12-27T20:14:41.343Z,13.50
2022-12-27T20:17:45.392Z,20.90
2022-12-27T20:21:20.393Z,19.80
2022-12-27T20:24:23.694Z,16.10
2022-12-27T20:27:27.354Z,18.00
2022-12-27T20:30:31.299Z,16.30
2022-12-27T20:33:35.011Z,17.40
2022-12-27T20:36:38.800Z,14.60
2022-12-27T20:39:42.070Z,14.80
2022-12-27T20:42:45.626Z,14.40
2022-12-27T20:45:48.991Z,15.30
2022-12-27T20:48:53.898Z,14.70
2022-12-27T20:51:57.231Z,13.20
2022-12-27T20:55:00.610Z,16.30
2022-12-27T20:58:04.429Z,15.10
2022-12-27T21:01:15.730Z,14.00
2022-12-27T21:04:19.346Z,16.40
2022-12-27T21:07:22.808Z,14.00
2022-12-27T21:10:39.996Z,16.10
2022-12-27T21:13:45.500Z,21.80
2022-12-27T21:16:49.054Z,19.10
2022-12-27T21:19:52.671Z,18.70
2022-12-27T21:22:56.054Z,23.50
2022-12-27T21:26:25.059Z,20.40
2022-12-27T21:29:28.510Z,19.10
2022-12-27T21:32:31.745Z,19.00
2022-12-27T21:35:34.940Z,17.60
2022-12-27T21:38:38.234Z,28.50
2022-12-27T21:41:41.583Z,19.90
2022-12-27T21:44:44.811Z,18.00
2022-12-27T21:47:47.996Z,18.30
2022-12-27T21:50:51.291Z,18.20
2022-12-27T21:53:55.255Z,14.70
2022-12-27T21:56:58.423Z,16.40
2022-12-27T22:00:02.057Z,19.20
2022-12-27T22:03:08.161Z,18.30
2022-12-27T22:06:17.685Z,18.00
2022-12-27T22:09:21.006Z,19.60
2022-12-27T22:12:24.309Z,22.80
2022-12-27T22:15:27.595Z,19.50
2022-12-27T22:18:32.557Z,18.70
2022-12-27T22:21:37.388Z,18.40
2022-12-27T22:24:41.084Z,18.70
2022-12-27T22:27:44.338Z,20.00
2022-12-27T22:30:47.534Z,19.60
2022-12-27T22:33:51.815Z,20.30
2022-12-27T22:36:55.040Z,23.80
2022-12-27T22:39:58.331Z,22.10
2022-12-27T22:43:01.720Z,17.80
2022-12-27T22:46:07.273Z,18.20
2022-12-27T22:49:10.517Z,16.40
2022-12-27T22:52:13.797Z,18.70
2022-12-27T22:55:17.213Z,18.40
2022-12-27T22:58:20.456Z,19.40
2022-12-27T23:01:27.978Z,17.50
2022-12-27T23:04:31.470Z,18.60
2022-12-27T23:08:04.156Z,15.20
2022-12-27T23:11:11.475Z,17.10
2022-12-27T23:14:16.542Z,14.30
2022-12-27T23:17:19.797Z,13.90
2022-12-27T23:20:22.992Z,14.70
2022-12-27T23:23:26.613Z,15.70
2022-12-27T23:26:29.956Z,18.60
2022-12-27T23:29:33.151Z,16.60
2022-12-27T23:32:36.425Z,17.40
2022-12-27T23:35:39.641Z,19.40
2022-12-27T23:38:43.582Z,15.30
2022-12-27T23:41:46.784Z,17.80
2022-12-27T23:44:50.640Z,16.70
2022-12-27T23:47:53.821Z,16.40
2022-12-27T23:50:56.996Z,16.70
2022-12-27T23:54:00.299Z,17.00
2022-12-27T23:57:20.377Z,15.00
